PWSweather.com
Personal Weather Stations
Station Observations
AC5JC
Greenleaf Peninsula, Waco, Waco, TX 76710

Greenleaf Peninsula, WacoWaco, TX 76710

Lat: 31.565, Lon: -97.198

Elevation: 570

Station Type: Ambient WS-1400IP

http://ac5jc.dyndns.org

Latest ConditionsUpdated 11:45:00 AM CST Saturday, Jan 19, 2019
Currently Today's Max Today's Min Today's Average
Temperature 43.2°F6.2°C 43.2°F6.2°C 39.9°F4.4°C 41.4°F5.2°C
Dew Point 25.8°F-3.4°C 30.7°F-0.7°C 25.6°F-3.6°C 27.5°F-2.5°C
Winds 11.6 mph NW18.7 kmh NW 15.7 mph -25.3 kmh - - 11.5 mph 18.5 kmh
Wind Gusts 27.5 mph44.3 kmh 40.0 mph64.4 kmh - -
Humidity 50% 69% 50% 58%
Pressure 30.17 in1021.7 mb 30.17 in1021.7 mb 30.06 in1017.9 mb -
Hour Temp Dew Point Humidity Winds Wind Gusts Pressure Precip Precip Rate Daily Precip Total
11:45 AM 43.2°F6.2°C 25.8°F-3.4°C 50% 11.6 mph NW18.7 kmh NW 27.5 mph44.3 kmh 30.17 in1021.7 mb 0.00 in0.0 mm 0.00 in0.0 mm 0.00 in0.0 mm
11:40 AM 43.2°F6.2°C 26.5°F-3.1°C 51% 9.8 mph NW15.8 kmh NW 22.4 mph36.0 kmh 30.16 in1021.3 mb 0.00 in0.0 mm 0.00 in0.0 mm 0.00 in0.0 mm
11:35 AM 42.8°F6.0°C 26.4°F-3.1°C 52% 14.5 mph NW23.3 kmh NW 30.0 mph48.3 kmh 30.16 in1021.3 mb 0.00 in0.0 mm 0.00 in0.0 mm 0.00 in0.0 mm
11:30 AM 42.6°F5.9°C 26.0°F-3.3°C 52% 13.5 mph NW21.7 kmh NW 24.8 mph39.9 kmh 30.16 in1021.3 mb 0.00 in0.0 mm 0.00 in0.0 mm 0.00 in0.0 mm
11:25 AM 42.4°F5.8°C 25.9°F-3.4°C 52% 9.8 mph NW15.8 kmh NW 22.4 mph36.0 kmh 30.16 in1021.3 mb 0.00 in0.0 mm 0.00 in0.0 mm 0.00 in0.0 mm
11:20 AM 42.4°F5.8°C 25.7°F-3.5°C 51% 11.1 mph NW17.9 kmh NW 27.5 mph44.3 kmh 30.16 in1021.3 mb 0.00 in0.0 mm 0.00 in0.0 mm 0.00 in0.0 mm
11:15 AM 42.2°F5.7°C 25.6°F-3.6°C 51% 10.2 mph WNW16.4 kmh WNW 15.0 mph24.1 kmh 30.16 in1021.3 mb 0.00 in0.0 mm 0.00 in0.0 mm 0.00 in0.0 mm
11:10 AM 42.1°F5.6°C 25.7°F-3.5°C 52% 10.4 mph NW16.7 kmh NW 22.4 mph36.0 kmh 30.16 in1021.3 mb 0.00 in0.0 mm 0.00 in0.0 mm 0.00 in0.0 mm
11:05 AM 41.9°F5.5°C 25.6°F-3.6°C 52% 13.0 mph NW20.9 kmh NW 22.4 mph36.0 kmh 30.16 in1021.3 mb 0.00 in0.0 mm 0.00 in0.0 mm 0.00 in0.0 mm
11:00 AM 42.1°F5.6°C 25.7°F-3.5°C 52% 14.6 mph NW23.5 kmh NW 27.5 mph44.3 kmh 30.16 in1021.3 mb 0.00 in0.0 mm 0.00 in0.0 mm 0.00 in0.0 mm
10:55 AM 42.0°F5.6°C 26.0°F-3.3°C 53% 14.8 mph NW23.8 kmh NW 30.0 mph48.3 kmh 30.14 in1020.7 mb 0.00 in0.0 mm 0.00 in0.0 mm 0.00 in0.0 mm
10:50 AM 41.9°F5.5°C 25.8°F-3.4°C 52% 14.4 mph NW23.2 kmh NW 40.0 mph64.4 kmh 30.14 in1020.7 mb 0.00 in0.0 mm 0.00 in0.0 mm 0.00 in0.0 mm
10:45 AM 41.9°F5.5°C 26.4°F-3.1°C 54% 9.1 mph NNW14.6 kmh NNW 17.4 mph28.0 kmh 30.14 in1020.7 mb 0.00 in0.0 mm 0.00 in0.0 mm 0.00 in0.0 mm
10:40 AM 41.7°F5.4°C 26.1°F-3.3°C 54% 13.2 mph NW21.2 kmh NW 30.0 mph48.3 kmh 30.14 in1020.7 mb 0.00 in0.0 mm 0.00 in0.0 mm 0.00 in0.0 mm
10:35 AM 41.7°F5.4°C 26.3°F-3.2°C 54% 11.8 mph NNW19.0 kmh NNW 19.9 mph32.0 kmh 30.14 in1020.7 mb 0.00 in0.0 mm 0.00 in0.0 mm 0.00 in0.0 mm
10:30 AM 41.7°F5.4°C 26.1°F-3.3°C 54% 11.5 mph NW18.5 kmh NW 22.4 mph36.0 kmh 30.14 in1020.7 mb 0.00 in0.0 mm 0.00 in0.0 mm 0.00 in0.0 mm
10:25 AM 41.7°F5.4°C 26.6°F-3.0°C 55% 15.7 mph NW25.3 kmh NW 32.4 mph52.1 kmh 30.14 in1020.7 mb 0.00 in0.0 mm 0.00 in0.0 mm 0.00 in0.0 mm
10:20 AM 41.7°F5.4°C 26.7°F-2.9°C 55% 13.6 mph WNW21.9 kmh WNW 30.0 mph48.3 kmh 30.13 in1020.3 mb 0.00 in0.0 mm 0.00 in0.0 mm 0.00 in0.0 mm
10:15 AM 41.9°F5.5°C 27.3°F-2.6°C 56% 11.2 mph WNW18.0 kmh WNW 27.5 mph44.3 kmh 30.13 in1020.3 mb 0.00 in0.0 mm 0.00 in0.0 mm 0.00 in0.0 mm
10:10 AM 41.9°F5.5°C 27.4°F-2.6°C 56% 11.4 mph NNW18.3 kmh NNW 27.5 mph44.3 kmh 30.12 in1020.0 mb 0.00 in0.0 mm 0.00 in0.0 mm 0.00 in0.0 mm
10:05 AM 41.8°F5.4°C 27.5°F-2.5°C 57% 12.7 mph NW20.4 kmh NW 22.4 mph36.0 kmh 30.12 in1020.0 mb 0.00 in0.0 mm 0.00 in0.0 mm 0.00 in0.0 mm
10:00 AM 41.7°F5.4°C 27.2°F-2.7°C 56% 10.0 mph NW16.1 kmh NW 24.8 mph39.9 kmh 30.12 in1020.0 mb 0.00 in0.0 mm 0.00 in0.0 mm 0.00 in0.0 mm
09:55 AM 41.5°F5.3°C 27.1°F-2.7°C 56% 11.3 mph WNW18.2 kmh WNW 27.5 mph44.3 kmh 30.12 in1020.0 mb 0.00 in0.0 mm 0.00 in0.0 mm 0.00 in0.0 mm
09:50 AM 41.4°F5.2°C 27.7°F-2.4°C 58% 12.3 mph N19.8 kmh N 24.8 mph39.9 kmh 30.12 in1020.0 mb 0.00 in0.0 mm 0.00 in0.0 mm 0.00 in0.0 mm
09:45 AM 41.4°F5.2°C 27.7°F-2.4°C 58% 9.9 mph NNW15.9 kmh NNW 24.8 mph39.9 kmh 30.11 in1019.6 mb 0.00 in0.0 mm 0.00 in0.0 mm 0.00 in0.0 mm
09:40 AM 41.3°F5.2°C 27.6°F-2.4°C 58% 8.0 mph NW12.9 kmh NW 17.4 mph28.0 kmh 30.11 in1019.6 mb 0.00 in0.0 mm 0.00 in0.0 mm 0.00 in0.0 mm
09:35 AM 41.0°F5.0°C 27.3°F-2.6°C 58% 13.8 mph NW22.2 kmh NW 27.5 mph44.3 kmh 30.11 in1019.6 mb 0.00 in0.0 mm 0.00 in0.0 mm 0.00 in0.0 mm
09:30 AM 40.8°F4.9°C 27.7°F-2.4°C 59% 13.3 mph NW21.4 kmh NW 27.5 mph44.3 kmh 30.11 in1019.6 mb 0.00 in0.0 mm 0.00 in0.0 mm 0.00 in0.0 mm
09:25 AM 40.8°F4.9°C 27.5°F-2.5°C 59% 13.2 mph NW21.2 kmh NW 27.5 mph44.3 kmh 30.11 in1019.6 mb 0.00 in0.0 mm 0.00 in0.0 mm 0.00 in0.0 mm
09:20 AM 40.8°F4.9°C 28.1°F-2.2°C 60% 12.3 mph NW19.8 kmh NW 22.4 mph36.0 kmh 30.11 in1019.6 mb 0.00 in0.0 mm 0.00 in0.0 mm 0.00 in0.0 mm
09:15 AM 40.7°F4.8°C 28.5°F-1.9°C 61% 13.2 mph NNW21.2 kmh NNW 27.5 mph44.3 kmh 30.11 in1019.6 mb 0.00 in0.0 mm 0.00 in0.0 mm 0.00 in0.0 mm
09:10 AM 40.5°F4.7°C 28.5°F-1.9°C 62% 12.5 mph NW20.1 kmh NW 19.9 mph32.0 kmh 30.11 in1019.6 mb 0.00 in0.0 mm 0.00 in0.0 mm 0.00 in0.0 mm
09:05 AM 40.3°F4.6°C 28.8°F-1.8°C 63% 12.7 mph NNW20.4 kmh NNW 24.8 mph39.9 kmh 30.11 in1019.6 mb 0.00 in0.0 mm 0.00 in0.0 mm 0.00 in0.0 mm
09:00 AM 40.3°F4.6°C 29.0°F-1.7°C 64% 9.3 mph NW15.0 kmh NW 22.4 mph36.0 kmh 30.10 in1019.3 mb 0.00 in0.0 mm 0.00 in0.0 mm 0.00 in0.0 mm
08:55 AM 40.3°F4.6°C 29.1°F-1.6°C 64% 10.2 mph NW16.4 kmh NW 22.4 mph36.0 kmh 30.10 in1019.3 mb 0.00 in0.0 mm 0.00 in0.0 mm 0.00 in0.0 mm
08:50 AM 40.5°F4.7°C 29.7°F-1.3°C 65% 13.0 mph W20.9 kmh W 24.8 mph39.9 kmh 30.10 in1019.3 mb 0.00 in0.0 mm 0.00 in0.0 mm 0.00 in0.0 mm
08:45 AM 40.5°F4.7°C 29.6°F-1.3°C 65% 9.2 mph NW14.8 kmh NW 22.4 mph36.0 kmh 30.09 in1019.0 mb 0.00 in0.0 mm 0.00 in0.0 mm 0.00 in0.0 mm
08:40 AM 40.5°F4.7°C 30.3°F-0.9°C 67% 11.8 mph NW19.0 kmh NW 30.0 mph48.3 kmh 30.09 in1019.0 mb 0.00 in0.0 mm 0.00 in0.0 mm 0.00 in0.0 mm
08:35 AM 40.4°F4.7°C 30.7°F-0.7°C 68% 7.6 mph WNW12.2 kmh WNW 17.4 mph28.0 kmh 30.08 in1018.6 mb 0.00 in0.0 mm 0.00 in0.0 mm 0.00 in0.0 mm
08:30 AM 39.9°F4.4°C 30.4°F-0.9°C 68% 7.8 mph NNW12.6 kmh NNW 15.0 mph24.1 kmh 30.08 in1018.6 mb 0.00 in0.0 mm 0.00 in0.0 mm 0.00 in0.0 mm
08:25 AM 39.9°F4.4°C 30.6°F-0.8°C 69% 8.7 mph WNW14.0 kmh WNW 17.4 mph28.0 kmh 30.07 in1018.3 mb 0.00 in0.0 mm 0.00 in0.0 mm 0.00 in0.0 mm
08:20 AM 39.9°F4.4°C 30.2°F-1.0°C 68% 9.2 mph NW14.8 kmh NW 17.4 mph28.0 kmh 30.07 in1018.3 mb 0.00 in0.0 mm 0.00 in0.0 mm 0.00 in0.0 mm
08:15 AM 39.9°F4.4°C 30.2°F-1.0°C 68% 9.3 mph NNW15.0 kmh NNW 22.4 mph36.0 kmh 30.06 in1017.9 mb 0.00 in0.0 mm 0.00 in0.0 mm 0.00 in0.0 mm